Time;durP1;ratioP1;P1;durP2;ratioP2;P2;SDS_P1;SDS_P2;PMS_P1;PMS_P2;Temp;Humidity;BMP_temperature;BMP_pressure;BME280_temperature;BME280_humidity;BME280_pressure;Samples;Min_cycle;Max_cycle;Signal;HPM_P1;HPM_P2
2022/10/11 00:01:44;;;;;;;22.70;20.77;;;;;;;;;;5113804;28;20454;-77
2022/10/11 00:04:11;;;;;;;23.77;21.37;;;;;;;;;;5114018;28;20963;-77
2022/10/11 00:06:42;;;;;;;22.83;21.10;;;;;;;;;;5114131;28;20490;-77
2022/10/11 00:09:10;;;;;;;23.73;21.70;;;;;;;;;;5114396;28;20414;-77
2022/10/11 00:11:37;;;;;;;24.10;21.83;;;;;;;;;;5112953;27;20967;-77
2022/10/11 00:14:06;;;;;;;23.67;21.57;;;;;;;;;;5117497;28;20450;-77
2022/10/11 00:16:34;;;;;;;25.17;22.40;;;;;;;;;;5118060;28;20906;-77
2022/10/11 00:19:01;;;;;;;22.43;20.73;;;;;;;;;;5118020;28;20486;-77
2022/10/11 00:21:29;;;;;;;22.73;20.23;;;;;;;;;;5117564;28;20932;-77
2022/10/11 00:23:56;;;;;;;23.73;21.70;;;;;;;;;;5117376;27;20529;-77
2022/10/11 00:26:24;;;;;;;22.10;20.30;;;;;;;;;;5117618;28;20495;-77
2022/10/11 00:28:52;;;;;;;22.67;21.00;;;;;;;;;;5117565;28;20443;-77
2022/10/11 00:31:21;;;;;;;23.10;21.03;;;;;;;;;;5117247;27;20432;-77
2022/10/11 00:33:48;;;;;;;23.20;21.33;;;;;;;;;;5117159;27;20494;-77
2022/10/11 00:36:17;;;;;;;22.80;20.80;;;;;;;;;;5118187;28;20421;-77
2022/10/11 00:38:45;;;;;;;23.47;21.67;;;;;;;;;;5117558;28;20894;-77
2022/10/11 00:41:13;;;;;;;23.77;21.60;;;;;;;;;;5117413;27;20763;-77
2022/10/11 00:43:40;;;;;;;23.10;21.13;;;;;;;;;;5117963;28;20463;-77
2022/10/11 00:46:25;;;;;;;23.30;21.27;;;;;;;;;;5116853;27;20453;-77
2022/10/11 00:48:56;;;;;;;23.20;21.07;;;;;;;;;;5117666;28;20850;-77
2022/10/11 00:51:26;;;;;;;23.60;21.60;;;;;;;;;;5117167;28;20410;-76
2022/10/11 00:53:54;;;;;;;22.97;21.10;;;;;;;;;;5117105;28;20476;-76
2022/10/11 00:56:23;;;;;;;23.50;21.33;;;;;;;;;;5117817;28;20422;-77
2022/10/11 00:58:51;;;;;;;23.70;21.70;;;;;;;;;;5117388;28;20417;-77
2022/10/11 01:01:18;;;;;;;30.67;23.50;;;;;;;;;;5116251;27;20450;-77
2022/10/11 01:03:47;;;;;;;24.43;22.33;;;;;;;;;;5117344;28;20444;-77
2022/10/11 01:06:14;;;;;;;24.23;22.20;;;;;;;;;;5116951;28;20491;-77
2022/10/11 01:08:41;;;;;;;23.60;21.20;;;;;;;;;;5117036;28;20429;-77
2022/10/11 01:11:11;;;;;;;28.50;21.17;;;;;;;;;;5116810;28;20970;-76
2022/10/11 01:13:43;;;;;;;23.60;21.40;;;;;;;;;;5116491;27;20840;-76
2022/10/11 01:16:15;;;;;;;24.10;22.13;;;;;;;;;;5117032;28;20423;-77
2022/10/11 01:18:45;;;;;;;23.13;21.33;;;;;;;;;;5117182;28;20466;-77
2022/10/11 01:21:17;;;;;;;45.23;22.20;;;;;;;;;;5116944;28;20778;-77
2022/10/11 01:23:59;;;;;;;24.40;20.67;;;;;;;;;;5117130;28;20467;-77
2022/10/11 01:26:45;;;;;;;24.17;21.80;;;;;;;;;;5117366;28;20461;-76
2022/10/11 01:29:18;;;;;;;24.37;21.60;;;;;;;;;;5116298;27;20449;-77
2022/10/11 01:31:50;;;;;;;31.90;22.53;;;;;;;;;;5116472;28;20390;-77
2022/10/11 01:34:23;;;;;;;24.20;21.73;;;;;;;;;;5116951;28;20441;-78
2022/10/11 01:36:53;;;;;;;22.77;20.93;;;;;;;;;;5116539;28;20425;-77
2022/10/11 01:39:24;;;;;;;27.67;21.60;;;;;;;;;;5116638;28;20426;-77
2022/10/11 01:41:53;;;;;;;23.67;21.57;;;;;;;;;;5116267;28;20413;-78
2022/10/11 01:44:21;;;;;;;24.70;22.03;;;;;;;;;;5115994;27;20478;-77
2022/10/11 01:46:51;;;;;;;27.13;23.17;;;;;;;;;;5116780;28;20478;-77
2022/10/11 01:49:18;;;;;;;23.93;21.07;;;;;;;;;;5116743;28;20431;-77
2022/10/11 01:51:47;;;;;;;23.00;21.23;;;;;;;;;;5115734;28;20447;-77
2022/10/11 01:54:22;;;;;;;24.33;22.30;;;;;;;;;;5115528;27;20798;-77
2022/10/11 01:56:58;;;;;;;23.30;21.30;;;;;;;;;;5116774;28;20402;-76
2022/10/11 01:59:32;;;;;;;27.73;21.40;;;;;;;;;;5116028;28;20439;-77
2022/10/11 02:02:07;;;;;;;24.03;21.80;;;;;;;;;;5115736;28;20486;-78
2022/10/11 02:04:36;;;;;;;25.13;23.03;;;;;;;;;;5115901;27;20463;-76
2022/10/11 02:07:07;;;;;;;24.53;22.20;;;;;;;;;;5116586;28;20462;-77
2022/10/11 02:09:37;;;;;;;24.10;22.13;;;;;;;;;;5115852;28;20428;-77
2022/10/11 02:12:07;;;;;;;25.00;22.17;;;;;;;;;;5115157;28;20449;-78
2022/10/11 02:14:36;;;;;;;25.13;22.77;;;;;;;;;;5116084;28;20406;-76
2022/10/11 02:17:07;;;;;;;25.07;22.57;;;;;;;;;;5115984;28;20426;-77
2022/10/11 02:19:37;;;;;;;24.33;21.93;;;;;;;;;;5115509;27;20437;-76
2022/10/11 02:22:06;;;;;;;23.90;21.60;;;;;;;;;;5115070;28;20425;-77
2022/10/11 02:24:35;;;;;;;25.67;22.93;;;;;;;;;;5115377;28;20813;-77
2022/10/11 02:27:04;;;;;;;24.73;22.27;;;;;;;;;;5115671;28;20477;-76
2022/10/11 02:29:32;;;;;;;24.80;22.67;;;;;;;;;;5115722;28;20422;-77
2022/10/11 02:32:00;;;;;;;23.53;21.73;;;;;;;;;;5115111;28;20425;-78
2022/10/11 02:34:31;;;;;;;24.47;22.10;;;;;;;;;;5115357;27;21088;-76
2022/10/11 02:37:02;;;;;;;24.60;22.37;;;;;;;;;;5115233;28;20425;-76
2022/10/11 02:39:32;;;;;;;25.90;22.60;;;;;;;;;;5115710;28;20444;-77
2022/10/11 02:42:02;;;;;;;34.97;23.90;;;;;;;;;;5114745;28;20399;-78
2022/10/11 02:44:31;;;;;;;26.57;23.07;;;;;;;;;;5114786;27;20459;-77
2022/10/11 02:46:59;;;;;;;28.73;25.90;;;;;;;;;;5114795;28;20476;-77
2022/10/11 02:49:27;;;;;;;24.87;22.37;;;;;;;;;;5114961;28;20476;-77
2022/10/11 02:51:57;;;;;;;25.27;23.10;;;;;;;;;;5114652;28;20481;-77
2022/10/11 02:54:24;;;;;;;27.13;20.80;;;;;;;;;;5114365;27;20482;-77
2022/10/11 02:56:51;;;;;;;25.03;22.63;;;;;;;;;;5116242;28;20411;-77
2022/10/11 02:59:19;;;;;;;28.27;21.83;;;;;;;;;;5114870;28;20437;-77
2022/10/11 03:01:46;;;;;;;23.90;22.00;;;;;;;;;;5114327;28;20450;-76
2022/10/11 03:04:13;;;;;;;27.70;22.33;;;;;;;;;;5114597;27;20491;-77
2022/10/11 03:06:41;;;;;;;25.47;22.27;;;;;;;;;;5114835;28;20483;-77
2022/10/11 03:09:09;;;;;;;23.87;22.17;;;;;;;;;;5114688;28;20788;-76
2022/10/11 03:11:36;;;;;;;35.90;22.47;;;;;;;;;;5114164;28;20443;-76
2022/10/11 03:14:04;;;;;;;25.33;21.40;;;;;;;;;;5113616;27;20861;-77
2022/10/11 03:16:31;;;;;;;23.17;21.17;;;;;;;;;;5114521;28;20518;-77
2022/10/11 03:18:59;;;;;;;24.73;22.50;;;;;;;;;;5114745;28;20426;-76
2022/10/11 03:21:26;;;;;;;25.13;23.07;;;;;;;;;;5114141;28;20439;-77
2022/10/11 03:23:53;;;;;;;25.03;22.87;;;;;;;;;;5113618;27;20491;-77
2022/10/11 03:26:22;;;;;;;25.87;23.03;;;;;;;;;;5114256;28;20553;-77
2022/10/11 03:28:50;;;;;;;35.10;23.60;;;;;;;;;;5114452;28;20426;-77
2022/10/11 03:31:19;;;;;;;35.83;24.83;;;;;;;;;;5114109;28;20563;-77
2022/10/11 03:33:46;;;;;;;25.07;22.80;;;;;;;;;;5115153;28;20524;-77
2022/10/11 03:36:14;;;;;;;40.13;24.27;;;;;;;;;;5114344;28;20454;-76
2022/10/11 03:38:41;;;;;;;25.97;23.37;;;;;;;;;;5113840;27;20470;-77
2022/10/11 03:41:08;;;;;;;31.97;23.83;;;;;;;;;;5114018;28;20450;-77
2022/10/11 03:43:37;;;;;;;25.20;22.13;;;;;;;;;;5114225;28;20856;-77
2022/10/11 03:46:04;;;;;;;27.80;23.50;;;;;;;;;;5113972;28;20444;-77
2022/10/11 03:48:32;;;;;;;27.27;22.30;;;;;;;;;;5112786;27;20994;-77
2022/10/11 03:50:59;;;;;;;26.73;23.27;;;;;;;;;;5113866;28;20787;-77
2022/10/11 03:53:26;;;;;;;27.47;23.67;;;;;;;;;;5113926;28;20467;-76
2022/10/11 03:55:54;;;;;;;31.40;24.23;;;;;;;;;;5114553;28;20447;-77
2022/10/11 03:58:21;;;;;;;40.23;24.10;;;;;;;;;;5113778;27;20490;-77
2022/10/11 04:00:51;;;;;;;38.73;24.87;;;;;;;;;;5114608;28;20456;-78
2022/10/11 04:03:18;;;;;;;31.33;22.80;;;;;;;;;;5113644;28;20922;-76
2022/10/11 04:05:46;;;;;;;31.20;22.37;;;;;;;;;;5114364;28;20418;-77
2022/10/11 04:08:13;;;;;;;40.50;23.73;;;;;;;;;;5114173;27;20494;-77
2022/10/11 04:10:41;;;;;;;28.60;24.40;;;;;;;;;;5113916;28;20410;-77
2022/10/11 04:13:08;;;;;;;24.67;22.90;;;;;;;;;;5113155;28;20475;-77
2022/10/11 04:15:37;;;;;;;26.10;22.10;;;;;;;;;;5114188;28;20451;-76
2022/10/11 04:18:06;;;;;;;26.33;21.90;;;;;;;;;;5114120;28;20913;-77
2022/10/11 04:20:34;;;;;;;23.80;21.60;;;;;;;;;;5113530;27;20463;-77
2022/10/11 04:23:01;;;;;;;25.63;22.90;;;;;;;;;;5113162;28;20858;-77
2022/10/11 04:25:29;;;;;;;26.57;23.77;;;;;;;;;;5113797;28;20466;-77
2022/10/11 04:27:56;;;;;;;25.60;23.23;;;;;;;;;;5114005;28;20507;-77
2022/10/11 04:30:24;;;;;;;26.70;23.90;;;;;;;;;;5113924;28;20455;-77
2022/10/11 04:32:51;;;;;;;26.93;24.20;;;;;;;;;;5112427;27;20502;-77
2022/10/11 04:35:20;;;;;;;26.80;24.53;;;;;;;;;;5113900;28;20454;-76
2022/10/11 04:37:47;;;;;;;27.83;24.77;;;;;;;;;;5113595;28;20422;-77
2022/10/11 04:40:15;;;;;;;36.07;24.93;;;;;;;;;;5113594;28;20454;-77
2022/10/11 04:42:42;;;;;;;48.20;26.17;;;;;;;;;;5112875;28;20471;-77
2022/10/11 04:45:10;;;;;;;44.10;25.30;;;;;;;;;;5113274;27;20468;-77
2022/10/11 04:47:39;;;;;;;33.93;26.33;;;;;;;;;;5113775;28;20515;-77
2022/10/11 04:50:07;;;;;;;30.77;27.30;;;;;;;;;;5113750;28;20482;-77
2022/10/11 04:52:36;;;;;;;31.67;25.80;;;;;;;;;;5113078;28;20511;-77
2022/10/11 04:55:03;;;;;;;28.33;24.37;;;;;;;;;;5112941;27;20470;-76
2022/10/11 04:57:30;;;;;;;27.40;24.50;;;;;;;;;;5113187;28;20954;-77
2022/10/11 04:59:57;;;;;;;31.00;25.67;;;;;;;;;;5116670;28;20454;-77
2022/10/11 05:02:25;;;;;;;36.33;25.03;;;;;;;;;;5116736;28;20451;-77
2022/10/11 05:04:52;;;;;;;27.50;24.60;;;;;;;;;;5116755;27;20418;-77
2022/10/11 05:07:20;;;;;;;34.30;26.37;;;;;;;;;;5116291;28;20474;-76
2022/10/11 05:09:48;;;;;;;31.80;24.57;;;;;;;;;;5117184;28;20910;-77
2022/10/11 05:12:16;;;;;;;28.13;25.20;;;;;;;;;;5116210;28;20426;-77
2022/10/11 05:14:43;;;;;;;28.10;25.50;;;;;;;;;;5117738;27;20410;-77
2022/10/11 05:17:10;;;;;;;27.33;24.37;;;;;;;;;;5116439;27;20462;-77
2022/10/11 05:19:38;;;;;;;28.37;24.93;;;;;;;;;;5117332;28;20422;-77
2022/10/11 05:22:05;;;;;;;26.43;23.83;;;;;;;;;;5116008;28;20465;-77
2022/10/11 05:24:32;;;;;;;26.60;24.10;;;;;;;;;;5117111;28;20766;-76
2022/10/11 05:27:01;;;;;;;35.43;24.97;;;;;;;;;;5116777;28;20801;-78
2022/10/11 05:29:29;;;;;;;36.43;27.10;;;;;;;;;;5116464;27;20486;-77
2022/10/11 05:31:56;;;;;;;35.67;27.47;;;;;;;;;;5116425;28;20474;-77
2022/10/11 05:34:23;;;;;;;33.50;28.30;;;;;;;;;;5116322;28;20483;-77
2022/10/11 05:36:51;;;;;;;39.63;27.30;;;;;;;;;;5116457;28;20433;-77
2022/10/11 05:39:18;;;;;;;32.90;26.37;;;;;;;;;;5115708;27;20805;-76
2022/10/11 05:41:45;;;;;;;47.67;28.13;;;;;;;;;;5116125;28;20437;-77
2022/10/11 05:44:14;;;;;;;39.37;27.90;;;;;;;;;;5116578;28;20470;-77
2022/10/11 05:46:41;;;;;;;32.63;25.00;;;;;;;;;;5116533;28;20455;-77
2022/10/11 05:49:08;;;;;;;30.43;24.90;;;;;;;;;;5115721;27;20491;-77
2022/10/11 05:51:36;;;;;;;27.50;24.77;;;;;;;;;;5115842;28;20455;-77
2022/10/11 05:54:04;;;;;;;36.70;25.47;;;;;;;;;;5115980;28;20956;-77
2022/10/11 05:56:31;;;;;;;31.73;25.90;;;;;;;;;;5116540;28;20421;-77
2022/10/11 05:58:58;;;;;;;33.93;25.63;;;;;;;;;;5116515;28;20448;-77
2022/10/11 06:01:28;;;;;;;27.13;24.53;;;;;;;;;;5115893;28;20423;-77
2022/10/11 06:03:55;;;;;;;41.73;25.97;;;;;;;;;;5115359;27;20487;-76
2022/10/11 06:06:23;;;;;;;33.80;25.13;;;;;;;;;;5116685;28;20476;-76
2022/10/11 06:08:50;;;;;;;27.23;24.60;;;;;;;;;;5115655;28;20460;-77
2022/10/11 06:11:19;;;;;;;25.40;23.20;;;;;;;;;;5115035;28;20419;-77
2022/10/11 06:13:46;;;;;;;26.17;23.77;;;;;;;;;;5115226;27;20488;-77
2022/10/11 06:16:13;;;;;;;27.53;25.20;;;;;;;;;;5114232;27;20451;-74
2022/10/11 06:18:42;;;;;;;28.60;25.57;;;;;;;;;;5135532;27;20453;-74
2022/10/11 06:21:09;;;;;;;27.37;23.90;;;;;;;;;;5139916;27;20450;-83
2022/10/11 06:23:37;;;;;;;34.77;22.63;;;;;;;;;;5139776;27;20851;-86
2022/10/11 06:26:05;;;;;;;26.53;22.80;;;;;;;;;;5141333;27;20425;-86
2022/10/11 06:28:33;;;;;;;25.17;22.60;;;;;;;;;;5139051;27;20478;-83
2022/10/11 06:31:00;;;;;;;26.73;23.50;;;;;;;;;;5138870;27;20439;-84
2022/10/11 06:33:28;;;;;;;24.37;22.43;;;;;;;;;;5136416;27;20473;-76
2022/10/11 06:35:59;;;;;;;24.87;22.33;;;;;;;;;;5137043;27;20427;-84
2022/10/11 06:38:27;;;;;;;25.80;23.03;;;;;;;;;;5140607;27;20520;-85
2022/10/11 06:40:54;;;;;;;42.07;24.20;;;;;;;;;;5138865;27;20429;-81
2022/10/11 06:43:21;;;;;;;24.87;22.30;;;;;;;;;;5138005;27;20473;-79
2022/10/11 06:45:48;;;;;;;27.40;23.90;;;;;;;;;;5138224;27;20467;-80
2022/10/11 06:48:16;;;;;;;25.80;23.50;;;;;;;;;;5138076;27;20477;-73
2022/10/11 06:50:43;;;;;;;27.30;24.53;;;;;;;;;;5134203;27;20447;-73
2022/10/11 06:53:12;;;;;;;47.53;26.17;;;;;;;;;;5134698;27;20473;-73
2022/10/11 06:55:39;;;;;;;28.03;23.80;;;;;;;;;;5135130;27;20473;-73
2022/10/11 06:58:07;;;;;;;26.97;24.20;;;;;;;;;;5135760;27;20469;-73
2022/10/11 07:00:34;;;;;;;27.40;24.20;;;;;;;;;;5135686;27;20450;-73
2022/10/11 07:03:02;;;;;;;27.17;24.70;;;;;;;;;;5134883;27;20478;-73
2022/10/11 07:05:30;;;;;;;27.97;25.17;;;;;;;;;;5134913;27;20434;-73
2022/10/11 07:07:58;;;;;;;29.60;26.67;;;;;;;;;;5134819;27;20493;-73
2022/10/11 07:10:26;;;;;;;31.13;25.47;;;;;;;;;;5135377;27;20454;-74
2022/10/11 07:12:54;;;;;;;28.60;25.67;;;;;;;;;;5134449;27;20964;-73
2022/10/11 07:15:21;;;;;;;27.30;24.80;;;;;;;;;;5135055;27;20429;-73
2022/10/11 07:17:49;;;;;;;28.50;25.60;;;;;;;;;;5134649;27;20973;-73
2022/10/11 07:20:16;;;;;;;28.17;25.30;;;;;;;;;;5135149;27;20443;-74
2022/10/11 07:22:43;;;;;;;28.17;25.53;;;;;;;;;;5133992;27;20464;-73
2022/10/11 07:25:11;;;;;;;26.77;23.90;;;;;;;;;;5135127;27;20445;-73
2022/10/11 07:27:39;;;;;;;26.77;24.60;;;;;;;;;;5134340;27;20842;-73
2022/10/11 07:30:07;;;;;;;26.93;24.60;;;;;;;;;;5135172;27;20483;-74
2022/10/11 07:32:34;;;;;;;28.23;25.63;;;;;;;;;;5134149;27;20466;-74
2022/10/11 07:35:02;;;;;;;28.57;25.57;;;;;;;;;;5134734;27;20428;-74
2022/10/11 07:37:29;;;;;;;43.27;25.00;;;;;;;;;;5134243;27;20462;-74
2022/10/11 07:39:56;;;;;;;25.70;23.50;;;;;;;;;;5134486;27;20495;-74
2022/10/11 07:42:24;;;;;;;25.77;23.23;;;;;;;;;;5134112;27;20445;-74
2022/10/11 07:44:52;;;;;;;23.67;21.57;;;;;;;;;;5134737;27;20899;-74
2022/10/11 07:47:20;;;;;;;27.07;24.47;;;;;;;;;;5134370;27;20456;-74
2022/10/11 07:49:47;;;;;;;24.47;22.20;;;;;;;;;;5134559;27;20485;-73
2022/10/11 07:52:14;;;;;;;24.83;22.93;;;;;;;;;;5134190;27;20455;-74
2022/10/11 07:54:41;;;;;;;24.87;22.77;;;;;;;;;;5134532;27;20417;-73
2022/10/11 07:57:09;;;;;;;25.03;23.03;;;;;;;;;;5134755;27;20446;-73
2022/10/11 07:59:36;;;;;;;26.77;24.30;;;;;;;;;;5133914;27;20461;-74
2022/10/11 08:02:05;;;;;;;26.33;24.03;;;;;;;;;;5134044;27;20502;-75
2022/10/11 08:04:32;;;;;;;26.80;24.40;;;;;;;;;;5135181;27;20421;-75
2022/10/11 08:07:00;;;;;;;27.80;25.00;;;;;;;;;;5134887;27;20446;-73
2022/10/11 08:09:27;;;;;;;26.70;24.30;;;;;;;;;;5133719;27;21005;-74
2022/10/11 08:11:54;;;;;;;27.23;24.90;;;;;;;;;;5133617;27;20458;-73
2022/10/11 08:14:22;;;;;;;28.23;25.90;;;;;;;;;;5134142;27;20446;-73
2022/10/11 08:16:49;;;;;;;26.20;23.87;;;;;;;;;;5134832;27;20829;-73
2022/10/11 08:19:18;;;;;;;28.97;26.30;;;;;;;;;;5133721;27;20413;-74
2022/10/11 08:21:45;;;;;;;27.67;24.93;;;;;;;;;;5133902;27;20450;-74
2022/10/11 08:24:13;;;;;;;29.37;25.73;;;;;;;;;;5133850;27;20441;-73
2022/10/11 08:26:41;;;;;;;27.53;25.07;;;;;;;;;;5135108;27;20454;-74
2022/10/11 08:29:09;;;;;;;27.33;24.60;;;;;;;;;;5134197;27;20478;-73
2022/10/11 08:31:36;;;;;;;26.83;24.53;;;;;;;;;;5133207;27;20441;-73
2022/10/11 08:34:03;;;;;;;26.87;24.33;;;;;;;;;;5136005;27;20437;-74
2022/10/11 08:36:32;;;;;;;26.70;24.50;;;;;;;;;;5140554;27;20447;-73
2022/10/11 08:39:00;;;;;;;27.43;24.73;;;;;;;;;;5134224;27;20467;-77
2022/10/11 08:41:30;;;;;;;26.03;24.03;;;;;;;;;;5123069;27;20475;-78
2022/10/11 08:44:11;;;;;;;27.10;24.50;;;;;;;;;;5138432;27;20430;-79
2022/10/11 08:46:39;;;;;;;24.87;22.90;;;;;;;;;;5137699;27;20429;-75
2022/10/11 08:49:08;;;;;;;24.80;22.70;;;;;;;;;;5138335;27;20489;-75
2022/10/11 08:51:40;;;;;;;25.47;23.43;;;;;;;;;;5137125;27;20505;-79
2022/10/11 08:54:12;;;;;;;26.70;24.30;;;;;;;;;;5142953;27;20441;-83
2022/10/11 08:56:40;;;;;;;26.13;24.13;;;;;;;;;;5142722;27;20415;-82
2022/10/11 08:59:16;;;;;;;24.77;22.83;;;;;;;;;;5139788;27;20443;-77
2022/10/11 09:01:45;;;;;;;28.63;26.17;;;;;;;;;;5137662;27;20466;-78
2022/10/11 09:04:14;;;;;;;26.57;24.33;;;;;;;;;;5137653;27;20466;-79
2022/10/11 09:06:47;;;;;;;26.23;23.80;;;;;;;;;;5116372;28;20443;-77
2022/10/11 09:09:21;;;;;;;27.10;24.80;;;;;;;;;;5117576;28;20447;-78
2022/10/11 09:11:55;;;;;;;26.83;24.53;;;;;;;;;;5115702;28;20423;-77
2022/10/11 09:14:30;;;;;;;29.73;26.87;;;;;;;;;;5116686;28;20472;-78
2022/10/11 09:17:04;;;;;;;29.03;26.33;;;;;;;;;;5117191;27;20781;-77
2022/10/11 09:19:39;;;;;;;26.53;24.30;;;;;;;;;;5116950;28;20448;-77
2022/10/11 09:22:13;;;;;;;28.97;26.53;;;;;;;;;;5116087;28;20466;-78
2022/10/11 09:24:46;;;;;;;26.73;24.30;;;;;;;;;;5116642;28;20935;-78
2022/10/11 09:27:19;;;;;;;26.47;24.33;;;;;;;;;;5116955;28;20443;-77
2022/10/11 09:29:51;;;;;;;26.07;23.63;;;;;;;;;;5116910;28;20511;-78
2022/10/11 09:32:20;;;;;;;25.93;23.70;;;;;;;;;;5115932;28;20443;-77
2022/10/11 09:34:49;;;;;;;26.30;24.07;;;;;;;;;;5116177;27;20523;-80
2022/10/11 09:37:21;;;;;;;28.90;26.53;;;;;;;;;;5116755;28;20460;-77
2022/10/11 09:39:51;;;;;;;25.33;23.53;;;;;;;;;;5116570;28;20805;-78
2022/10/11 09:42:18;;;;;;;26.80;24.67;;;;;;;;;;5115616;28;20422;-77
2022/10/11 09:44:47;;;;;;;25.47;23.57;;;;;;;;;;5115869;27;20410;-78
2022/10/11 09:47:15;;;;;;;26.60;24.50;;;;;;;;;;5116190;28;20444;-78
2022/10/11 09:49:45;;;;;;;26.50;24.30;;;;;;;;;;5116413;28;20475;-78
2022/10/11 09:52:16;;;;;;;27.10;25.03;;;;;;;;;;5115546;28;20462;-78
2022/10/11 09:54:46;;;;;;;26.77;24.50;;;;;;;;;;5116025;28;20452;-78
2022/10/11 09:57:19;;;;;;;26.63;24.33;;;;;;;;;;5115660;27;20475;-78
2022/10/11 09:59:58;;;;;;;26.03;23.97;;;;;;;;;;5116013;28;20415;-78
2022/10/11 10:02:25;;;;;;;26.10;23.70;;;;;;;;;;5115607;28;20531;-78
2022/10/11 10:05:05;;;;;;;26.80;24.43;;;;;;;;;;5116588;28;20444;-79
2022/10/11 10:07:34;;;;;;;25.60;23.70;;;;;;;;;;5115950;28;20438;-79
2022/10/11 10:10:25;;;;;;;24.40;22.43;;;;;;;;;;5115090;28;20475;-78
2022/10/11 10:12:54;;;;;;;27.03;24.80;;;;;;;;;;5115370;28;20455;-77
2022/10/11 10:15:22;;;;;;;23.57;21.80;;;;;;;;;;5115828;28;20419;-77
2022/10/11 10:17:50;;;;;;;25.70;23.73;;;;;;;;;;5115670;28;20836;-78
2022/10/11 10:20:20;;;;;;;26.10;23.97;;;;;;;;;;5115852;27;20798;-79
2022/10/11 10:22:48;;;;;;;24.90;23.00;;;;;;;;;;5114995;28;20839;-78
2022/10/11 10:25:22;;;;;;;26.33;24.17;;;;;;;;;;5116016;28;20451;-79
2022/10/11 10:27:57;;;;;;;25.30;23.47;;;;;;;;;;5116081;28;20625;-78
2022/10/11 10:30:24;;;;;;;26.20;23.97;;;;;;;;;;5115652;28;20499;-78
2022/10/11 10:32:53;;;;;;;24.83;22.90;;;;;;;;;;5114638;27;20940;-78
2022/10/11 10:35:32;;;;;;;25.20;22.93;;;;;;;;;;5115657;28;21000;-77
2022/10/11 10:38:03;;;;;;;26.17;24.37;;;;;;;;;;5115568;28;20432;-78
2022/10/11 10:40:34;;;;;;;26.70;24.70;;;;;;;;;;5115358;28;20395;-78
2022/10/11 10:43:02;;;;;;;28.17;25.77;;;;;;;;;;5114121;27;20453;-78
2022/10/11 10:45:33;;;;;;;27.20;24.80;;;;;;;;;;5115602;28;20513;-78
2022/10/11 10:48:09;;;;;;;27.60;25.30;;;;;;;;;;5115301;28;20443;-78
2022/10/11 10:50:42;;;;;;;25.40;23.10;;;;;;;;;;5114918;28;20875;-78
2022/10/11 10:53:13;;;;;;;26.93;24.47;;;;;;;;;;5114370;27;20467;-78
2022/10/11 10:55:43;;;;;;;26.77;24.57;;;;;;;;;;5114907;28;20438;-78
2022/10/11 10:58:31;;;;;;;26.97;24.77;;;;;;;;;;5114854;28;20890;-78
2022/10/11 11:01:00;;;;;;;26.73;24.30;;;;;;;;;;5108702;28;20425;-78
2022/10/11 11:03:30;;;;;;;26.73;24.63;;;;;;;;;;5115121;27;20453;-86
2022/10/11 11:06:02;;;;;;;26.10;24.20;;;;;;;;;;5116600;28;20904;-75
2022/10/11 11:08:39;;;;;;;25.20;23.00;;;;;;;;;;5115064;28;20436;-78
2022/10/11 11:11:16;;;;;;;24.77;23.00;;;;;;;;;;5114553;28;20423;-78
2022/10/11 11:13:46;;;;;;;25.40;23.60;;;;;;;;;;5114593;28;20442;-77
2022/10/11 11:16:17;;;;;;;25.17;22.97;;;;;;;;;;5114981;28;20435;-78
2022/10/11 11:18:52;;;;;;;28.80;25.90;;;;;;;;;;5114530;28;20444;-77
2022/10/11 11:21:36;;;;;;;24.80;22.70;;;;;;;;;;5113857;28;20428;-78
2022/10/11 11:24:07;;;;;;;26.53;24.17;;;;;;;;;;5113694;27;20475;-78
2022/10/11 11:26:40;;;;;;;24.57;22.77;;;;;;;;;;5114428;28;20427;-77
2022/10/11 11:29:12;;;;;;;25.03;22.83;;;;;;;;;;5114881;28;20471;-77
2022/10/11 11:31:46;;;;;;;25.00;23.10;;;;;;;;;;5114203;28;20766;-78
2022/10/11 11:34:17;;;;;;;26.03;23.67;;;;;;;;;;5113928;27;20840;-78
2022/10/11 11:36:47;;;;;;;25.90;23.77;;;;;;;;;;5114543;28;20452;-78
2022/10/11 11:39:17;;;;;;;25.33;23.40;;;;;;;;;;5114471;28;20867;-78
2022/10/11 11:41:48;;;;;;;24.20;22.40;;;;;;;;;;5113926;28;20533;-78
2022/10/11 11:44:18;;;;;;;24.53;22.30;;;;;;;;;;5113699;27;20462;-78
2022/10/11 11:46:47;;;;;;;25.00;23.13;;;;;;;;;;5113928;28;20443;-78
2022/10/11 11:49:18;;;;;;;25.90;23.43;;;;;;;;;;5113674;28;20990;-78
2022/10/11 11:51:46;;;;;;;25.93;23.53;;;;;;;;;;5113326;28;20452;-78
2022/10/11 11:54:21;;;;;;;27.40;24.73;;;;;;;;;;5113214;27;20488;-77
2022/10/11 11:56:55;;;;;;;25.50;23.23;;;;;;;;;;5115160;28;20431;-78
2022/10/11 11:59:26;;;;;;;24.53;22.37;;;;;;;;;;5114198;28;20424;-78
2022/10/11 12:01:58;;;;;;;25.90;23.57;;;;;;;;;;5113788;28;20403;-78
2022/10/11 12:04:27;;;;;;;25.27;23.00;;;;;;;;;;5113556;27;20992;-78
2022/10/11 12:07:03;;;;;;;23.90;22.00;;;;;;;;;;5114579;28;20448;-78
2022/10/11 12:09:31;;;;;;;30.53;24.70;;;;;;;;;;5116594;28;20445;-78
2022/10/11 12:12:01;;;;;;;25.90;23.13;;;;;;;;;;5117788;28;20525;-78
2022/10/11 12:14:36;;;;;;;25.50;23.20;;;;;;;;;;5117824;27;20772;-78
2022/10/11 12:17:18;;;;;;;26.30;24.10;;;;;;;;;;5118281;28;20435;-78
2022/10/11 12:19:59;;;;;;;25.23;23.07;;;;;;;;;;5117870;28;20432;-78
2022/10/11 12:22:41;;;;;;;26.97;24.67;;;;;;;;;;5117322;28;20470;-78
2022/10/11 12:25:27;;;;;;;25.67;23.57;;;;;;;;;;5117534;27;20533;-78
2022/10/11 12:27:56;;;;;;;27.07;24.70;;;;;;;;;;5118218;28;20449;-78
2022/10/11 12:30:42;;;;;;;27.30;24.70;;;;;;;;;;5117730;28;20454;-78
2022/10/11 12:33:15;;;;;;;25.20;23.20;;;;;;;;;;5117397;28;20484;-77
2022/10/11 12:35:52;;;;;;;26.73;24.37;;;;;;;;;;5117771;28;20899;-78
2022/10/11 12:38:21;;;;;;;26.40;24.10;;;;;;;;;;5117275;27;20482;-77
2022/10/11 12:40:48;;;;;;;26.60;24.20;;;;;;;;;;5117469;28;20479;-79
2022/10/11 12:43:26;;;;;;;26.00;24.00;;;;;;;;;;5117445;28;20463;-78
2022/10/11 12:45:54;;;;;;;27.70;24.90;;;;;;;;;;5117763;28;20407;-78
2022/10/11 12:48:38;;;;;;;25.13;23.23;;;;;;;;;;5116868;27;20812;-78
2022/10/11 12:51:26;;;;;;;28.13;25.40;;;;;;;;;;5116958;28;20501;-78
2022/10/11 12:54:00;;;;;;;27.50;24.80;;;;;;;;;;5111567;28;20471;-78
2022/10/11 12:56:36;;;;;;;27.40;24.73;;;;;;;;;;5117899;28;20404;-78
2022/10/11 12:59:07;;;;;;;27.00;24.63;;;;;;;;;;5117104;27;20478;-79
2022/10/11 13:01:36;;;;;;;25.20;23.23;;;;;;;;;;5116946;28;20390;-78
2022/10/11 13:04:07;;;;;;;27.73;25.10;;;;;;;;;;5116876;28;20465;-78
2022/10/11 13:06:37;;;;;;;26.40;24.00;;;;;;;;;;5117183;28;20948;-78
2022/10/11 13:09:06;;;;;;;25.40;22.80;;;;;;;;;;5116536;27;20460;-78
2022/10/11 13:11:34;;;;;;;25.93;23.63;;;;;;;;;;5116698;28;20559;-77
2022/10/11 13:14:06;;;;;;;27.53;25.10;;;;;;;;;;5118194;28;20514;-78
2022/10/11 13:16:45;;;;;;;25.93;23.77;;;;;;;;;;5117270;28;20438;-78
2022/10/11 13:19:14;;;;;;;26.37;23.93;;;;;;;;;;5116185;27;20446;-78
2022/10/11 13:21:42;;;;;;;25.33;23.40;;;;;;;;;;5132024;27;20460;-88
2022/10/11 13:24:11;;;;;;;26.00;23.63;;;;;;;;;;5137541;27;20520;-78
2022/10/11 13:26:40;;;;;;;24.17;21.90;;;;;;;;;;5137127;27;20530;-78
2022/10/11 13:29:15;;;;;;;23.97;21.93;;;;;;;;;;5138164;27;20412;-77
2022/10/11 13:31:46;;;;;;;24.77;22.70;;;;;;;;;;5137817;27;20480;-78
2022/10/11 13:34:14;;;;;;;24.23;21.93;;;;;;;;;;5137011;27;20521;-77
2022/10/11 13:36:43;;;;;;;26.33;23.93;;;;;;;;;;5137329;27;20426;-77
2022/10/11 13:39:23;;;;;;;24.17;21.93;;;;;;;;;;5137401;27;20492;-78
2022/10/11 13:41:51;;;;;;;23.90;21.90;;;;;;;;;;5136640;27;20431;-77
2022/10/11 13:44:19;;;;;;;22.27;20.53;;;;;;;;;;5136507;27;21445;-77
2022/10/11 13:46:48;;;;;;;22.93;21.13;;;;;;;;;;5136891;27;20458;-77
2022/10/11 13:49:26;;;;;;;22.97;21.10;;;;;;;;;;5136825;27;20451;-78
2022/10/11 13:51:58;;;;;;;24.43;22.30;;;;;;;;;;5136632;27;20405;-78
2022/10/11 13:54:25;;;;;;;23.10;21.43;;;;;;;;;;5136463;27;20463;-78
2022/10/11 13:56:53;;;;;;;23.60;21.60;;;;;;;;;;5136666;27;20421;-78
2022/10/11 13:59:22;;;;;;;22.13;20.53;;;;;;;;;;5136872;27;20459;-79
2022/10/11 14:01:54;;;;;;;23.07;21.10;;;;;;;;;;5136106;27;20447;-78
2022/10/11 14:04:21;;;;;;;23.00;20.80;;;;;;;;;;5135910;27;20483;-78
2022/10/11 14:06:59;;;;;;;22.67;20.30;;;;;;;;;;5136579;27;20421;-78
2022/10/11 14:09:28;;;;;;;23.17;21.37;;;;;;;;;;5136875;27;20438;-81
2022/10/11 14:11:56;;;;;;;23.30;21.40;;;;;;;;;;5139928;27;20478;-85
2022/10/11 14:14:31;;;;;;;22.20;20.60;;;;;;;;;;5138930;27;20815;-88
2022/10/11 14:17:07;;;;;;;22.73;21.23;;;;;;;;;;5136384;27;20441;-81
2022/10/11 14:19:35;;;;;;;21.80;20.20;;;;;;;;;;5136610;27;20424;-76
2022/10/11 14:22:06;;;;;;;22.50;21.00;;;;;;;;;;5135554;27;20451;-77
2022/10/11 14:24:34;;;;;;;22.50;20.70;;;;;;;;;;5136234;27;20476;-76
2022/10/11 14:27:06;;;;;;;23.07;21.03;;;;;;;;;;5136314;27;20451;-76
2022/10/11 14:29:35;;;;;;;22.30;20.20;;;;;;;;;;5136734;27;20440;-80
2022/10/11 14:32:06;;;;;;;25.10;21.80;;;;;;;;;;5134784;27;20562;-75